sensor_id;sensor_type;location;lat;lon;timestamp;P1;durP1;ratioP1;P2;durP2;ratioP2
5776;SDS011;2914;42.668;23.346;2023-05-07T00:01:09;16.83;;;9.77;;
5776;SDS011;2914;42.668;23.346;2023-05-07T00:03:38;17.10;;;9.80;;
5776;SDS011;2914;42.668;23.346;2023-05-07T00:06:08;16.03;;;9.70;;
5776;SDS011;2914;42.668;23.346;2023-05-07T00:08:38;16.37;;;9.53;;
5776;SDS011;2914;42.668;23.346;2023-05-07T00:11:07;18.80;;;11.10;;
5776;SDS011;2914;42.668;23.346;2023-05-07T00:13:36;29.00;;;10.70;;
5776;SDS011;2914;42.668;23.346;2023-05-07T00:16:05;15.77;;;10.00;;
5776;SDS011;2914;42.668;23.346;2023-05-07T00:18:34;17.27;;;11.97;;
5776;SDS011;2914;42.668;23.346;2023-05-07T00:21:04;18.37;;;11.07;;
5776;SDS011;2914;42.668;23.346;2023-05-07T00:23:33;15.40;;;11.90;;
5776;SDS011;2914;42.668;23.346;2023-05-07T00:26:02;20.07;;;11.40;;
5776;SDS011;2914;42.668;23.346;2023-05-07T00:28:31;21.27;;;12.50;;
5776;SDS011;2914;42.668;23.346;2023-05-07T00:31:00;18.50;;;12.57;;
5776;SDS011;2914;42.668;23.346;2023-05-07T00:33:29;16.83;;;11.80;;
5776;SDS011;2914;42.668;23.346;2023-05-07T00:35:58;18.13;;;12.90;;
5776;SDS011;2914;42.668;23.346;2023-05-07T00:38:28;34.43;;;13.40;;
5776;SDS011;2914;42.668;23.346;2023-05-07T00:40:57;21.33;;;13.53;;
5776;SDS011;2914;42.668;23.346;2023-05-07T00:43:26;22.30;;;12.83;;
5776;SDS011;2914;42.668;23.346;2023-05-07T00:45:55;18.37;;;12.33;;
5776;SDS011;2914;42.668;23.346;2023-05-07T00:48:24;15.37;;;11.10;;
5776;SDS011;2914;42.668;23.346;2023-05-07T00:50:54;16.93;;;10.80;;
5776;SDS011;2914;42.668;23.346;2023-05-07T00:53:24;13.60;;;11.67;;
5776;SDS011;2914;42.668;23.346;2023-05-07T00:55:53;17.47;;;11.70;;
5776;SDS011;2914;42.668;23.346;2023-05-07T00:58:22;13.73;;;11.00;;
5776;SDS011;2914;42.668;23.346;2023-05-07T01:00:52;14.60;;;11.30;;
5776;SDS011;2914;42.668;23.346;2023-05-07T01:03:21;19.30;;;10.63;;
5776;SDS011;2914;42.668;23.346;2023-05-07T01:05:50;16.90;;;11.80;;
5776;SDS011;2914;42.668;23.346;2023-05-07T01:08:21;22.00;;;11.47;;
5776;SDS011;2914;42.668;23.346;2023-05-07T01:10:52;17.90;;;11.40;;
5776;SDS011;2914;42.668;23.346;2023-05-07T01:13:22;11.00;;;9.53;;
5776;SDS011;2914;42.668;23.346;2023-05-07T01:15:52;10.33;;;8.57;;
5776;SDS011;2914;42.668;23.346;2023-05-07T01:18:21;10.77;;;8.60;;
5776;SDS011;2914;42.668;23.346;2023-05-07T01:20:52;18.97;;;7.80;;
5776;SDS011;2914;42.668;23.346;2023-05-07T01:23:22;12.50;;;8.00;;
5776;SDS011;2914;42.668;23.346;2023-05-07T01:25:52;8.90;;;7.30;;
5776;SDS011;2914;42.668;23.346;2023-05-07T01:28:22;7.23;;;6.63;;
5776;SDS011;2914;42.668;23.346;2023-05-07T01:30:52;7.87;;;7.10;;
5776;SDS011;2914;42.668;23.346;2023-05-07T01:33:23;7.70;;;6.90;;
5776;SDS011;2914;42.668;23.346;2023-05-07T01:35:53;7.43;;;6.40;;
5776;SDS011;2914;42.668;23.346;2023-05-07T01:38:24;6.40;;;5.90;;
5776;SDS011;2914;42.668;23.346;2023-05-07T01:40:54;7.50;;;5.67;;
5776;SDS011;2914;42.668;23.346;2023-05-07T01:43:23;9.20;;;5.33;;
5776;SDS011;2914;42.668;23.346;2023-05-07T01:45:53;6.27;;;5.70;;
5776;SDS011;2914;42.668;23.346;2023-05-07T01:48:22;7.90;;;5.97;;
5776;SDS011;2914;42.668;23.346;2023-05-07T01:50:51;7.93;;;6.73;;
5776;SDS011;2914;42.668;23.346;2023-05-07T01:53:22;6.50;;;6.10;;
5776;SDS011;2914;42.668;23.346;2023-05-07T01:55:51;6.00;;;5.60;;
5776;SDS011;2914;42.668;23.346;2023-05-07T01:58:20;10.87;;;7.33;;
5776;SDS011;2914;42.668;23.346;2023-05-07T02:00:49;12.87;;;7.50;;
5776;SDS011;2914;42.668;23.346;2023-05-07T02:03:18;7.70;;;7.00;;
5776;SDS011;2914;42.668;23.346;2023-05-07T02:05:47;7.80;;;7.10;;
5776;SDS011;2914;42.668;23.346;2023-05-07T02:08:16;7.73;;;6.97;;
5776;SDS011;2914;42.668;23.346;2023-05-07T02:10:45;8.40;;;7.57;;
5776;SDS011;2914;42.668;23.346;2023-05-07T02:13:14;12.73;;;7.60;;
5776;SDS011;2914;42.668;23.346;2023-05-07T02:15:43;8.83;;;8.03;;
5776;SDS011;2914;42.668;23.346;2023-05-07T02:18:14;11.10;;;8.30;;
5776;SDS011;2914;42.668;23.346;2023-05-07T02:20:43;9.20;;;8.30;;
5776;SDS011;2914;42.668;23.346;2023-05-07T02:23:12;8.83;;;8.00;;
5776;SDS011;2914;42.668;23.346;2023-05-07T02:25:41;10.63;;;9.60;;
5776;SDS011;2914;42.668;23.346;2023-05-07T02:28:10;11.53;;;9.87;;
5776;SDS011;2914;42.668;23.346;2023-05-07T02:30:40;10.27;;;9.17;;
5776;SDS011;2914;42.668;23.346;2023-05-07T02:33:09;9.77;;;8.77;;
5776;SDS011;2914;42.668;23.346;2023-05-07T02:35:38;9.43;;;8.53;;
5776;SDS011;2914;42.668;23.346;2023-05-07T02:38:07;13.37;;;8.83;;
5776;SDS011;2914;42.668;23.346;2023-05-07T02:40:37;10.47;;;9.00;;
5776;SDS011;2914;42.668;23.346;2023-05-07T02:43:06;14.07;;;9.33;;
5776;SDS011;2914;42.668;23.346;2023-05-07T02:45:35;10.57;;;8.53;;
5776;SDS011;2914;42.668;23.346;2023-05-07T02:48:04;10.27;;;9.17;;
5776;SDS011;2914;42.668;23.346;2023-05-07T02:50:33;9.73;;;8.83;;
5776;SDS011;2914;42.668;23.346;2023-05-07T02:53:02;12.20;;;9.30;;
5776;SDS011;2914;42.668;23.346;2023-05-07T02:55:31;10.27;;;8.90;;
5776;SDS011;2914;42.668;23.346;2023-05-07T02:58:01;15.13;;;10.10;;
5776;SDS011;2914;42.668;23.346;2023-05-07T03:00:30;12.20;;;9.63;;
5776;SDS011;2914;42.668;23.346;2023-05-07T03:02:59;27.10;;;9.00;;
5776;SDS011;2914;42.668;23.346;2023-05-07T03:05:27;11.03;;;9.43;;
5776;SDS011;2914;42.668;23.346;2023-05-07T03:07:56;11.40;;;10.20;;
5776;SDS011;2914;42.668;23.346;2023-05-07T03:10:25;10.27;;;9.17;;
5776;SDS011;2914;42.668;23.346;2023-05-07T03:12:54;13.53;;;10.87;;
5776;SDS011;2914;42.668;23.346;2023-05-07T03:15:23;12.43;;;10.40;;
5776;SDS011;2914;42.668;23.346;2023-05-07T03:17:52;12.03;;;9.67;;
5776;SDS011;2914;42.668;23.346;2023-05-07T03:20:21;14.90;;;10.47;;
5776;SDS011;2914;42.668;23.346;2023-05-07T03:22:50;14.33;;;10.73;;
5776;SDS011;2914;42.668;23.346;2023-05-07T03:25:19;16.27;;;11.43;;
5776;SDS011;2914;42.668;23.346;2023-05-07T03:27:48;14.90;;;10.93;;
5776;SDS011;2914;42.668;23.346;2023-05-07T03:30:18;14.80;;;11.47;;
5776;SDS011;2914;42.668;23.346;2023-05-07T03:32:47;22.77;;;12.27;;
5776;SDS011;2914;42.668;23.346;2023-05-07T03:35:16;14.57;;;12.07;;
5776;SDS011;2914;42.668;23.346;2023-05-07T03:37:45;14.57;;;12.23;;
5776;SDS011;2914;42.668;23.346;2023-05-07T03:40:22;15.47;;;12.63;;
5776;SDS011;2914;42.668;23.346;2023-05-07T03:42:51;20.10;;;12.67;;
5776;SDS011;2914;42.668;23.346;2023-05-07T03:45:20;16.73;;;12.70;;
5776;SDS011;2914;42.668;23.346;2023-05-07T03:47:49;20.30;;;13.27;;
5776;SDS011;2914;42.668;23.346;2023-05-07T03:50:19;16.33;;;13.10;;
5776;SDS011;2914;42.668;23.346;2023-05-07T03:52:48;16.50;;;12.90;;
5776;SDS011;2914;42.668;23.346;2023-05-07T03:55:26;16.17;;;12.53;;
5776;SDS011;2914;42.668;23.346;2023-05-07T03:57:55;16.17;;;11.83;;
5776;SDS011;2914;42.668;23.346;2023-05-07T04:00:33;11.90;;;10.70;;
5776;SDS011;2914;42.668;23.346;2023-05-07T04:03:04;16.67;;;11.57;;
5776;SDS011;2914;42.668;23.346;2023-05-07T04:05:33;10.90;;;9.80;;
5776;SDS011;2914;42.668;23.346;2023-05-07T04:08:02;11.87;;;10.03;;
5776;SDS011;2914;42.668;23.346;2023-05-07T04:10:32;15.63;;;10.13;;
5776;SDS011;2914;42.668;23.346;2023-05-07T04:13:01;11.67;;;9.73;;
5776;SDS011;2914;42.668;23.346;2023-05-07T04:15:30;21.53;;;10.70;;
5776;SDS011;2914;42.668;23.346;2023-05-07T04:17:59;18.20;;;9.00;;
5776;SDS011;2914;42.668;23.346;2023-05-07T04:20:28;11.07;;;9.33;;
5776;SDS011;2914;42.668;23.346;2023-05-07T04:23:05;11.50;;;9.40;;
5776;SDS011;2914;42.668;23.346;2023-05-07T04:25:36;11.47;;;10.27;;
5776;SDS011;2914;42.668;23.346;2023-05-07T04:28:05;11.90;;;10.57;;
5776;SDS011;2914;42.668;23.346;2023-05-07T04:30:34;13.17;;;9.90;;
5776;SDS011;2914;42.668;23.346;2023-05-07T04:33:03;17.23;;;10.30;;
5776;SDS011;2914;42.668;23.346;2023-05-07T04:35:32;14.77;;;9.40;;
5776;SDS011;2914;42.668;23.346;2023-05-07T04:38:04;11.60;;;9.50;;
5776;SDS011;2914;42.668;23.346;2023-05-07T04:40:33;16.80;;;10.13;;
5776;SDS011;2914;42.668;23.346;2023-05-07T04:43:05;12.00;;;9.13;;
5776;SDS011;2914;42.668;23.346;2023-05-07T04:45:35;11.00;;;9.43;;
5776;SDS011;2914;42.668;23.346;2023-05-07T04:48:06;10.47;;;9.20;;
5776;SDS011;2914;42.668;23.346;2023-05-07T04:50:36;12.90;;;9.60;;
5776;SDS011;2914;42.668;23.346;2023-05-07T04:53:05;21.67;;;10.50;;
5776;SDS011;2914;42.668;23.346;2023-05-07T04:55:43;12.83;;;9.97;;
5776;SDS011;2914;42.668;23.346;2023-05-07T04:58:12;16.53;;;10.83;;
5776;SDS011;2914;42.668;23.346;2023-05-07T05:00:41;15.37;;;10.97;;
5776;SDS011;2914;42.668;23.346;2023-05-07T05:03:11;14.00;;;9.23;;
5776;SDS011;2914;42.668;23.346;2023-05-07T05:05:40;10.43;;;9.43;;
5776;SDS011;2914;42.668;23.346;2023-05-07T05:08:09;15.07;;;10.70;;
5776;SDS011;2914;42.668;23.346;2023-05-07T05:10:38;10.00;;;9.10;;
5776;SDS011;2914;42.668;23.346;2023-05-07T05:13:09;13.10;;;10.60;;
5776;SDS011;2914;42.668;23.346;2023-05-07T05:15:53;15.17;;;10.50;;
5776;SDS011;2914;42.668;23.346;2023-05-07T05:18:22;14.53;;;10.73;;
5776;SDS011;2914;42.668;23.346;2023-05-07T05:21:06;16.23;;;10.33;;
5776;SDS011;2914;42.668;23.346;2023-05-07T05:23:35;24.23;;;12.40;;
5776;SDS011;2914;42.668;23.346;2023-05-07T05:26:06;15.30;;;12.10;;
5776;SDS011;2914;42.668;23.346;2023-05-07T05:28:35;12.33;;;10.90;;
5776;SDS011;2914;42.668;23.346;2023-05-07T05:31:04;19.57;;;12.50;;
5776;SDS011;2914;42.668;23.346;2023-05-07T05:33:33;16.17;;;11.03;;
5776;SDS011;2914;42.668;23.346;2023-05-07T05:36:02;22.23;;;11.87;;
5776;SDS011;2914;42.668;23.346;2023-05-07T05:38:33;17.37;;;10.70;;
5776;SDS011;2914;42.668;23.346;2023-05-07T05:41:02;13.67;;;11.47;;
5776;SDS011;2914;42.668;23.346;2023-05-07T05:43:31;14.47;;;11.63;;
5776;SDS011;2914;42.668;23.346;2023-05-07T05:46:00;13.17;;;11.77;;
5776;SDS011;2914;42.668;23.346;2023-05-07T05:48:30;14.37;;;11.80;;
5776;SDS011;2914;42.668;23.346;2023-05-07T05:50:59;11.90;;;10.03;;
5776;SDS011;2914;42.668;23.346;2023-05-07T05:53:43;15.60;;;10.67;;
5776;SDS011;2914;42.668;23.346;2023-05-07T05:58:48;12.73;;;11.23;;
5776;SDS011;2914;42.668;23.346;2023-05-07T06:01:17;15.80;;;11.70;;
5776;SDS011;2914;42.668;23.346;2023-05-07T06:03:46;16.50;;;11.80;;
5776;SDS011;2914;42.668;23.346;2023-05-07T06:06:24;13.93;;;10.50;;
5776;SDS011;2914;42.668;23.346;2023-05-07T06:08:54;15.63;;;11.33;;
5776;SDS011;2914;42.668;23.346;2023-05-07T06:11:33;13.07;;;10.77;;
5776;SDS011;2914;42.668;23.346;2023-05-07T06:14:02;12.00;;;9.83;;
5776;SDS011;2914;42.668;23.346;2023-05-07T06:16:40;15.73;;;10.17;;
5776;SDS011;2914;42.668;23.346;2023-05-07T06:19:09;11.57;;;9.17;;
5776;SDS011;2914;42.668;23.346;2023-05-07T06:21:47;12.53;;;9.60;;
5776;SDS011;2914;42.668;23.346;2023-05-07T06:24:17;11.03;;;9.93;;
5776;SDS011;2914;42.668;23.346;2023-05-07T06:26:46;12.67;;;10.47;;
5776;SDS011;2914;42.668;23.346;2023-05-07T06:29:15;19.33;;;10.53;;
5776;SDS011;2914;42.668;23.346;2023-05-07T06:31:45;14.90;;;9.07;;
5776;SDS011;2914;42.668;23.346;2023-05-07T06:34:14;10.80;;;9.00;;
5776;SDS011;2914;42.668;23.346;2023-05-07T06:36:43;12.10;;;10.07;;
5776;SDS011;2914;42.668;23.346;2023-05-07T06:39:12;17.47;;;9.17;;
5776;SDS011;2914;42.668;23.346;2023-05-07T06:41:41;17.97;;;11.87;;
5776;SDS011;2914;42.668;23.346;2023-05-07T06:44:10;12.23;;;11.00;;
5776;SDS011;2914;42.668;23.346;2023-05-07T06:46:39;12.60;;;11.23;;
5776;SDS011;2914;42.668;23.346;2023-05-07T06:49:09;15.43;;;11.23;;
5776;SDS011;2914;42.668;23.346;2023-05-07T06:51:38;12.00;;;10.17;;
5776;SDS011;2914;42.668;23.346;2023-05-07T06:54:07;14.10;;;10.00;;
5776;SDS011;2914;42.668;23.346;2023-05-07T06:56:36;15.70;;;10.00;;
5776;SDS011;2914;42.668;23.346;2023-05-07T06:59:05;11.50;;;9.90;;
5776;SDS011;2914;42.668;23.346;2023-05-07T07:01:35;13.30;;;10.70;;
5776;SDS011;2914;42.668;23.346;2023-05-07T07:04:04;10.80;;;9.33;;
5776;SDS011;2914;42.668;23.346;2023-05-07T07:09:15;12.33;;;10.00;;
5776;SDS011;2914;42.668;23.346;2023-05-07T07:11:44;13.90;;;10.53;;
5776;SDS011;2914;42.668;23.346;2023-05-07T07:14:22;12.63;;;9.93;;
5776;SDS011;2914;42.668;23.346;2023-05-07T07:16:51;12.63;;;9.90;;
5776;SDS011;2914;42.668;23.346;2023-05-07T07:19:20;12.30;;;10.03;;
5776;SDS011;2914;42.668;23.346;2023-05-07T07:21:49;11.30;;;10.10;;
5776;SDS011;2914;42.668;23.346;2023-05-07T07:24:18;11.53;;;9.93;;
5776;SDS011;2914;42.668;23.346;2023-05-07T07:26:47;19.60;;;11.40;;
5776;SDS011;2914;42.668;23.346;2023-05-07T07:29:16;14.63;;;10.67;;
5776;SDS011;2914;42.668;23.346;2023-05-07T07:31:45;12.53;;;11.20;;
5776;SDS011;2914;42.668;23.346;2023-05-07T07:34:15;13.53;;;11.80;;
5776;SDS011;2914;42.668;23.346;2023-05-07T07:36:44;17.83;;;11.20;;
5776;SDS011;2914;42.668;23.346;2023-05-07T07:39:13;20.33;;;11.40;;
5776;SDS011;2914;42.668;23.346;2023-05-07T07:41:42;21.57;;;11.50;;
5776;SDS011;2914;42.668;23.346;2023-05-07T07:44:11;21.90;;;11.87;;
5776;SDS011;2914;42.668;23.346;2023-05-07T07:46:40;15.53;;;11.17;;
5776;SDS011;2914;42.668;23.346;2023-05-07T07:49:09;12.17;;;10.97;;
5776;SDS011;2914;42.668;23.346;2023-05-07T07:51:41;17.63;;;12.40;;
5776;SDS011;2914;42.668;23.346;2023-05-07T07:54:10;14.23;;;11.33;;
5776;SDS011;2914;42.668;23.346;2023-05-07T07:56:39;14.87;;;11.13;;
5776;SDS011;2914;42.668;23.346;2023-05-07T07:59:09;17.10;;;11.20;;
5776;SDS011;2914;42.668;23.346;2023-05-07T08:01:39;17.37;;;11.60;;
5776;SDS011;2914;42.668;23.346;2023-05-07T08:04:08;15.30;;;12.63;;
5776;SDS011;2914;42.668;23.346;2023-05-07T08:06:38;14.00;;;12.40;;
5776;SDS011;2914;42.668;23.346;2023-05-07T08:09:07;15.00;;;11.10;;
5776;SDS011;2914;42.668;23.346;2023-05-07T08:11:36;18.50;;;10.13;;
5776;SDS011;2914;42.668;23.346;2023-05-07T08:14:05;13.73;;;10.63;;
5776;SDS011;2914;42.668;23.346;2023-05-07T08:16:34;16.30;;;10.60;;
5776;SDS011;2914;42.668;23.346;2023-05-07T08:19:03;27.60;;;11.13;;
5776;SDS011;2914;42.668;23.346;2023-05-07T08:21:32;16.53;;;10.80;;
5776;SDS011;2914;42.668;23.346;2023-05-07T08:24:01;19.90;;;10.57;;
5776;SDS011;2914;42.668;23.346;2023-05-07T08:26:31;24.67;;;9.97;;
5776;SDS011;2914;42.668;23.346;2023-05-07T08:29:01;17.63;;;11.20;;
5776;SDS011;2914;42.668;23.346;2023-05-07T08:31:30;18.03;;;10.73;;
5776;SDS011;2914;42.668;23.346;2023-05-07T08:33:59;12.03;;;10.70;;
5776;SDS011;2914;42.668;23.346;2023-05-07T08:36:28;19.03;;;11.37;;
5776;SDS011;2914;42.668;23.346;2023-05-07T08:38:58;25.70;;;11.97;;
5776;SDS011;2914;42.668;23.346;2023-05-07T08:41:28;12.03;;;10.80;;
5776;SDS011;2914;42.668;23.346;2023-05-07T08:43:58;16.10;;;10.60;;
5776;SDS011;2914;42.668;23.346;2023-05-07T08:46:30;14.90;;;9.80;;
5776;SDS011;2914;42.668;23.346;2023-05-07T08:49:00;11.37;;;9.10;;
5776;SDS011;2914;42.668;23.346;2023-05-07T08:51:29;16.80;;;9.67;;
5776;SDS011;2914;42.668;23.346;2023-05-07T08:53:58;10.80;;;9.67;;
5776;SDS011;2914;42.668;23.346;2023-05-07T08:56:28;19.87;;;9.07;;
5776;SDS011;2914;42.668;23.346;2023-05-07T08:58:57;29.93;;;9.73;;
5776;SDS011;2914;42.668;23.346;2023-05-07T09:01:34;10.67;;;8.20;;
5776;SDS011;2914;42.668;23.346;2023-05-07T09:04:04;8.43;;;7.63;;
5776;SDS011;2914;42.668;23.346;2023-05-07T09:06:33;9.80;;;8.03;;
5776;SDS011;2914;42.668;23.346;2023-05-07T09:11:40;8.70;;;7.40;;
5776;SDS011;2914;42.668;23.346;2023-05-07T09:14:10;8.13;;;7.43;;
5776;SDS011;2914;42.668;23.346;2023-05-07T09:16:38;8.30;;;7.60;;
5776;SDS011;2914;42.668;23.346;2023-05-07T09:19:08;7.83;;;7.17;;
5776;SDS011;2914;42.668;23.346;2023-05-07T09:21:37;8.33;;;7.63;;
5776;SDS011;2914;42.668;23.346;2023-05-07T09:24:06;11.53;;;8.10;;
5776;SDS011;2914;42.668;23.346;2023-05-07T09:26:35;12.83;;;7.37;;
5776;SDS011;2914;42.668;23.346;2023-05-07T09:29:05;15.63;;;8.17;;
5776;SDS011;2914;42.668;23.346;2023-05-07T09:31:36;10.53;;;7.90;;
5776;SDS011;2914;42.668;23.346;2023-05-07T09:34:06;9.53;;;7.40;;
5776;SDS011;2914;42.668;23.346;2023-05-07T09:36:35;17.00;;;7.43;;
5776;SDS011;2914;42.668;23.346;2023-05-07T09:39:04;8.67;;;7.30;;
5776;SDS011;2914;42.668;23.346;2023-05-07T09:41:36;9.47;;;7.67;;
5776;SDS011;2914;42.668;23.346;2023-05-07T09:44:11;9.53;;;7.77;;
5776;SDS011;2914;42.668;23.346;2023-05-07T09:46:43;12.20;;;8.50;;
5776;SDS011;2914;42.668;23.346;2023-05-07T09:49:16;10.70;;;7.33;;
5776;SDS011;2914;42.668;23.346;2023-05-07T09:51:49;6.87;;;6.37;;
5776;SDS011;2914;42.668;23.346;2023-05-07T09:54:18;13.03;;;6.60;;
5776;SDS011;2914;42.668;23.346;2023-05-07T09:56:48;7.00;;;6.40;;
5776;SDS011;2914;42.668;23.346;2023-05-07T10:01:56;10.40;;;6.40;;
5776;SDS011;2914;42.668;23.346;2023-05-07T10:04:26;5.93;;;5.40;;
5776;SDS011;2914;42.668;23.346;2023-05-07T10:07:03;7.17;;;5.73;;
5776;SDS011;2914;42.668;23.346;2023-05-07T10:09:34;8.13;;;5.60;;
5776;SDS011;2914;42.668;23.346;2023-05-07T10:12:05;8.43;;;4.70;;
5776;SDS011;2914;42.668;23.346;2023-05-07T10:14:34;5.87;;;5.37;;
5776;SDS011;2914;42.668;23.346;2023-05-07T10:17:12;7.93;;;5.07;;
5776;SDS011;2914;42.668;23.346;2023-05-07T10:19:42;6.20;;;5.60;;
5776;SDS011;2914;42.668;23.346;2023-05-07T10:22:13;5.43;;;5.03;;
5776;SDS011;2914;42.668;23.346;2023-05-07T10:24:44;5.70;;;5.30;;
5776;SDS011;2914;42.668;23.346;2023-05-07T10:27:14;7.57;;;5.13;;
5776;SDS011;2914;42.668;23.346;2023-05-07T10:30:14;6.73;;;6.00;;
5776;SDS011;2914;42.668;23.346;2023-05-07T10:32:47;7.20;;;5.50;;
5776;SDS011;2914;42.668;23.346;2023-05-07T10:35:45;6.77;;;5.80;;
5776;SDS011;2914;42.668;23.346;2023-05-07T10:38:16;7.20;;;5.40;;
5776;SDS011;2914;42.668;23.346;2023-05-07T10:40:45;7.37;;;4.93;;
5776;SDS011;2914;42.668;23.346;2023-05-07T10:43:14;5.90;;;5.47;;
5776;SDS011;2914;42.668;23.346;2023-05-07T10:45:43;5.40;;;5.03;;
5776;SDS011;2914;42.668;23.346;2023-05-07T10:48:14;7.00;;;5.50;;
5776;SDS011;2914;42.668;23.346;2023-05-07T10:50:44;5.97;;;5.50;;
5776;SDS011;2914;42.668;23.346;2023-05-07T10:53:23;5.53;;;5.13;;
5776;SDS011;2914;42.668;23.346;2023-05-07T10:58:54;6.20;;;5.17;;
5776;SDS011;2914;42.668;23.346;2023-05-07T11:04:20;5.77;;;5.37;;
5776;SDS011;2914;42.668;23.346;2023-05-07T11:07:20;6.10;;;5.50;;
5776;SDS011;2914;42.668;23.346;2023-05-07T11:09:56;9.93;;;6.00;;
5776;SDS011;2914;42.668;23.346;2023-05-07T11:15:33;6.27;;;5.73;;
5776;SDS011;2914;42.668;23.346;2023-05-07T11:18:09;11.33;;;6.23;;
5776;SDS011;2914;42.668;23.346;2023-05-07T11:20:50;5.83;;;5.43;;
5776;SDS011;2914;42.668;23.346;2023-05-07T11:26:42;6.33;;;5.43;;
5776;SDS011;2914;42.668;23.346;2023-05-07T11:29:16;6.83;;;6.00;;
5776;SDS011;2914;42.668;23.346;2023-05-07T11:31:48;6.00;;;5.60;;
5776;SDS011;2914;42.668;23.346;2023-05-07T11:34:21;6.03;;;5.50;;
5776;SDS011;2914;42.668;23.346;2023-05-07T11:36:51;9.90;;;6.40;;
5776;SDS011;2914;42.668;23.346;2023-05-07T11:39:25;7.73;;;5.63;;
5776;SDS011;2914;42.668;23.346;2023-05-07T11:41:55;6.53;;;6.00;;
5776;SDS011;2914;42.668;23.346;2023-05-07T11:44:25;6.20;;;5.80;;
5776;SDS011;2914;42.668;23.346;2023-05-07T11:47:12;9.93;;;5.87;;
5776;SDS011;2914;42.668;23.346;2023-05-07T11:49:47;6.70;;;5.80;;
5776;SDS011;2914;42.668;23.346;2023-05-07T11:52:25;6.10;;;5.60;;
5776;SDS011;2914;42.668;23.346;2023-05-07T11:55:02;6.23;;;5.73;;
5776;SDS011;2914;42.668;23.346;2023-05-07T11:57:33;6.53;;;5.80;;
5776;SDS011;2914;42.668;23.346;2023-05-07T12:00:15;13.70;;;5.87;;
5776;SDS011;2914;42.668;23.346;2023-05-07T12:02:45;6.13;;;5.73;;
5776;SDS011;2914;42.668;23.346;2023-05-07T12:05:15;6.80;;;6.30;;
5776;SDS011;2914;42.668;23.346;2023-05-07T12:07:46;6.10;;;5.60;;
5776;SDS011;2914;42.668;23.346;2023-05-07T12:10:16;17.93;;;6.63;;
5776;SDS011;2914;42.668;23.346;2023-05-07T12:12:46;7.73;;;6.10;;
5776;SDS011;2914;42.668;23.346;2023-05-07T12:15:16;6.70;;;6.10;;
5776;SDS011;2914;42.668;23.346;2023-05-07T12:17:47;8.80;;;6.10;;
5776;SDS011;2914;42.668;23.346;2023-05-07T12:20:16;6.47;;;5.97;;
5776;SDS011;2914;42.668;23.346;2023-05-07T12:22:46;7.53;;;5.30;;
5776;SDS011;2914;42.668;23.346;2023-05-07T12:25:19;6.73;;;6.13;;
5776;SDS011;2914;42.668;23.346;2023-05-07T12:27:51;6.63;;;5.93;;
5776;SDS011;2914;42.668;23.346;2023-05-07T12:30:21;6.37;;;4.90;;
5776;SDS011;2914;42.668;23.346;2023-05-07T12:32:52;5.50;;;4.97;;
5776;SDS011;2914;42.668;23.346;2023-05-07T12:35:27;6.43;;;5.27;;
5776;SDS011;2914;42.668;23.346;2023-05-07T12:37:56;5.90;;;5.40;;
5776;SDS011;2914;42.668;23.346;2023-05-07T12:40:35;5.00;;;4.60;;
5776;SDS011;2914;42.668;23.346;2023-05-07T12:43:06;4.70;;;4.40;;
5776;SDS011;2914;42.668;23.346;2023-05-07T12:45:41;4.43;;;4.07;;
5776;SDS011;2914;42.668;23.346;2023-05-07T12:48:10;4.40;;;4.00;;
5776;SDS011;2914;42.668;23.346;2023-05-07T12:50:39;5.17;;;4.77;;
5776;SDS011;2914;42.668;23.346;2023-05-07T12:53:09;3.90;;;3.60;;
5776;SDS011;2914;42.668;23.346;2023-05-07T12:55:43;3.93;;;3.70;;
5776;SDS011;2914;42.668;23.346;2023-05-07T12:58:16;4.23;;;3.93;;
5776;SDS011;2914;42.668;23.346;2023-05-07T13:00:48;4.57;;;4.27;;
5776;SDS011;2914;42.668;23.346;2023-05-07T13:03:24;5.60;;;4.10;;
5776;SDS011;2914;42.668;23.346;2023-05-07T13:05:55;4.50;;;4.30;;
5776;SDS011;2914;42.668;23.346;2023-05-07T13:08:30;4.70;;;4.27;;
5776;SDS011;2914;42.668;23.346;2023-05-07T13:11:01;4.73;;;4.33;;
5776;SDS011;2914;42.668;23.346;2023-05-07T13:13:32;4.13;;;3.83;;
5776;SDS011;2914;42.668;23.346;2023-05-07T13:16:05;4.17;;;3.80;;
5776;SDS011;2914;42.668;23.346;2023-05-07T13:18:36;4.83;;;4.23;;
5776;SDS011;2914;42.668;23.346;2023-05-07T13:21:08;4.00;;;3.80;;
5776;SDS011;2914;42.668;23.346;2023-05-07T13:23:40;3.90;;;3.70;;
5776;SDS011;2914;42.668;23.346;2023-05-07T13:26:09;3.77;;;3.57;;
5776;SDS011;2914;42.668;23.346;2023-05-07T13:28:38;4.90;;;4.40;;
5776;SDS011;2914;42.668;23.346;2023-05-07T13:31:08;3.90;;;3.70;;
5776;SDS011;2914;42.668;23.346;2023-05-07T13:33:37;3.70;;;3.50;;
5776;SDS011;2914;42.668;23.346;2023-05-07T13:36:06;4.67;;;4.37;;
5776;SDS011;2914;42.668;23.346;2023-05-07T13:38:36;4.53;;;4.23;;
5776;SDS011;2914;42.668;23.346;2023-05-07T13:41:14;4.73;;;4.33;;
5776;SDS011;2914;42.668;23.346;2023-05-07T13:43:44;5.37;;;4.10;;
5776;SDS011;2914;42.668;23.346;2023-05-07T13:46:13;4.70;;;4.00;;
5776;SDS011;2914;42.668;23.346;2023-05-07T13:48:42;4.60;;;4.20;;
5776;SDS011;2914;42.668;23.346;2023-05-07T13:51:11;4.73;;;4.30;;
5776;SDS011;2914;42.668;23.346;2023-05-07T13:53:40;11.30;;;4.60;;
5776;SDS011;2914;42.668;23.346;2023-05-07T13:56:09;5.20;;;4.07;;
5776;SDS011;2914;42.668;23.346;2023-05-07T13:58:38;3.40;;;3.30;;
5776;SDS011;2914;42.668;23.346;2023-05-07T14:01:07;4.33;;;4.00;;
5776;SDS011;2914;42.668;23.346;2023-05-07T14:03:37;4.50;;;4.10;;
5776;SDS011;2914;42.668;23.346;2023-05-07T14:06:06;4.57;;;3.80;;
5776;SDS011;2914;42.668;23.346;2023-05-07T14:08:35;10.37;;;3.60;;
5776;SDS011;2914;42.668;23.346;2023-05-07T14:11:04;4.63;;;4.23;;
5776;SDS011;2914;42.668;23.346;2023-05-07T14:13:33;4.23;;;4.03;;
5776;SDS011;2914;42.668;23.346;2023-05-07T14:16:06;5.67;;;4.30;;
5776;SDS011;2914;42.668;23.346;2023-05-07T14:18:35;4.70;;;4.30;;
5776;SDS011;2914;42.668;23.346;2023-05-07T14:21:13;4.50;;;4.20;;
5776;SDS011;2914;42.668;23.346;2023-05-07T14:23:42;4.50;;;4.20;;
5776;SDS011;2914;42.668;23.346;2023-05-07T14:26:11;6.30;;;4.20;;
5776;SDS011;2914;42.668;23.346;2023-05-07T14:28:41;4.30;;;4.00;;
5776;SDS011;2914;42.668;23.346;2023-05-07T14:31:12;4.53;;;4.23;;
5776;SDS011;2914;42.668;23.346;2023-05-07T14:33:41;3.73;;;3.53;;
5776;SDS011;2914;42.668;23.346;2023-05-07T14:36:10;5.30;;;4.80;;
5776;SDS011;2914;42.668;23.346;2023-05-07T14:38:39;4.47;;;4.23;;
5776;SDS011;2914;42.668;23.346;2023-05-07T14:41:08;4.63;;;4.17;;
5776;SDS011;2914;42.668;23.346;2023-05-07T14:43:37;8.13;;;3.80;;
5776;SDS011;2914;42.668;23.346;2023-05-07T14:46:06;4.00;;;3.70;;
5776;SDS011;2914;42.668;23.346;2023-05-07T14:48:35;8.33;;;3.97;;
5776;SDS011;2914;42.668;23.346;2023-05-07T14:51:04;4.50;;;4.30;;
5776;SDS011;2914;42.668;23.346;2023-05-07T14:53:33;4.47;;;4.17;;
5776;SDS011;2914;42.668;23.346;2023-05-07T14:56:03;4.20;;;3.90;;
5776;SDS011;2914;42.668;23.346;2023-05-07T14:58:41;7.27;;;4.10;;
5776;SDS011;2914;42.668;23.346;2023-05-07T15:01:10;4.57;;;4.00;;
5776;SDS011;2914;42.668;23.346;2023-05-07T15:03:39;11.03;;;4.17;;
5776;SDS011;2914;42.668;23.346;2023-05-07T15:06:08;4.67;;;4.00;;
5776;SDS011;2914;42.668;23.346;2023-05-07T15:08:37;4.47;;;4.03;;
5776;SDS011;2914;42.668;23.346;2023-05-07T15:11:06;7.33;;;4.10;;
5776;SDS011;2914;42.668;23.346;2023-05-07T15:13:36;4.10;;;3.90;;
5776;SDS011;2914;42.668;23.346;2023-05-07T15:16:05;5.00;;;4.60;;
5776;SDS011;2914;42.668;23.346;2023-05-07T15:18:35;4.40;;;4.20;;
5776;SDS011;2914;42.668;23.346;2023-05-07T15:21:08;7.53;;;4.17;;
5776;SDS011;2914;42.668;23.346;2023-05-07T15:23:41;5.30;;;4.30;;
5776;SDS011;2914;42.668;23.346;2023-05-07T15:26:11;7.07;;;4.17;;
5776;SDS011;2914;42.668;23.346;2023-05-07T15:28:40;8.13;;;4.90;;
5776;SDS011;2914;42.668;23.346;2023-05-07T15:31:09;5.00;;;4.57;;